Time;durP1;ratioP1;P1;durP2;ratioP2;P2;SDS_P1;SDS_P2;PMS_P1;PMS_P2;Temp;Humidity;BMP_temperature;BMP_pressure;BME280_temperature;BME280_humidity;BME280_pressure;Samples;Min_cycle;Max_cycle;Signal;HPM_P1;HPM_P2
2023/01/25 00:00:43;;;;;;;35.03;28.23;;;2.00;99.90;;;;;;5065326;28;20468;-69
2023/01/25 00:03:11;;;;;;;36.20;29.00;;;2.10;99.90;;;;;;5071062;28;20479;-70
2023/01/25 00:05:38;;;;;;;35.70;30.07;;;2.10;99.90;;;;;;5072412;28;20471;-69
2023/01/25 00:08:05;;;;;;;35.43;29.30;;;2.10;99.90;;;;;;5069176;28;20493;-69
2023/01/25 00:10:32;;;;;;;35.00;28.30;;;2.20;99.90;;;;;;5070891;28;20462;-69
2023/01/25 00:12:59;;;;;;;35.97;28.73;;;2.10;99.90;;;;;;5067570;28;20544;-69
2023/01/25 00:15:26;;;;;;;37.53;29.33;;;2.10;99.90;;;;;;5063718;28;20493;-69
2023/01/25 00:17:53;;;;;;;35.40;28.37;;;2.20;99.90;;;;;;5066117;28;20966;-70
2023/01/25 00:20:21;;;;;;;36.13;30.07;;;2.30;99.90;;;;;;5076028;28;20462;-69
2023/01/25 00:22:48;;;;;;;37.43;29.90;;;2.30;99.90;;;;;;5074398;28;20494;-70
2023/01/25 00:25:15;;;;;;;34.50;30.50;;;2.40;99.90;;;;;;5068344;28;20466;-69
2023/01/25 00:27:41;;;;;;;36.70;28.83;;;2.50;99.90;;;;;;5077766;28;20454;-70
2023/01/25 00:30:10;;;;;;;39.73;29.53;;;2.50;99.90;;;;;;5074448;28;20459;-69
2023/01/25 00:32:57;;;;;;;38.23;29.17;;;2.50;99.90;;;;;;5076109;28;20465;-69
2023/01/25 00:35:31;;;;;;;33.50;27.90;;;2.20;99.90;;;;;;5065528;28;20809;-69
2023/01/25 00:38:02;;;;;;;35.20;28.40;;;2.20;99.90;;;;;;5072034;28;20492;-70
2023/01/25 00:40:28;;;;;;;39.23;30.30;;;2.00;99.90;;;;;;5069631;28;21149;-70
2023/01/25 00:42:58;;;;;;;34.87;29.37;;;2.00;99.90;;;;;;5069212;28;20495;-70
2023/01/25 00:45:24;;;;;;;41.40;30.40;;;2.10;99.90;;;;;;5070194;28;20474;-70
2023/01/25 00:47:56;;;;;;;42.50;31.43;;;2.10;99.90;;;;;;5068044;28;20971;-70
2023/01/25 00:50:24;;;;;;;37.63;29.90;;;2.20;99.90;;;;;;5069318;28;20463;-69
2023/01/25 00:52:51;;;;;;;36.73;29.27;;;2.20;99.90;;;;;;5065044;28;20486;-69
2023/01/25 00:55:18;;;;;;;37.63;29.90;;;2.30;99.90;;;;;;5075812;28;20465;-69
2023/01/25 00:57:45;;;;;;;39.03;29.80;;;2.30;99.90;;;;;;5070547;28;20919;-69
2023/01/25 01:00:12;;;;;;;38.87;31.47;;;2.20;99.90;;;;;;5067355;28;20465;-69
2023/01/25 01:02:39;;;;;;;42.93;31.40;;;2.10;99.90;;;;;;5068047;28;20505;-69
2023/01/25 01:05:07;;;;;;;37.97;29.60;;;2.00;99.90;;;;;;5065471;28;20928;-69
2023/01/25 01:07:35;;;;;;;36.63;29.80;;;2.10;99.90;;;;;;5078106;28;20458;-70
2023/01/25 01:10:01;;;;;;;39.10;29.80;;;2.00;99.90;;;;;;5068754;28;20597;-70
2023/01/25 01:12:28;;;;;;;39.47;30.50;;;1.90;99.90;;;;;;5076751;28;20470;-69
2023/01/25 01:14:56;;;;;;;40.60;30.30;;;1.90;99.90;;;;;;5075392;28;20474;-69
2023/01/25 01:17:24;;;;;;;41.43;31.30;;;1.90;99.90;;;;;;5063289;28;20546;-69
2023/01/25 01:19:51;;;;;;;38.70;29.90;;;2.10;99.90;;;;;;5071225;28;20471;-69
2023/01/25 01:22:17;;;;;;;37.83;30.20;;;2.20;99.90;;;;;;5069554;28;20486;-69
2023/01/25 01:24:47;;;;;;;41.83;31.10;;;2.20;99.90;;;;;;5072921;28;20465;-69
2023/01/25 01:27:14;;;;;;;39.07;29.80;;;2.20;99.90;;;;;;5071266;28;20495;-69
2023/01/25 01:29:41;;;;;;;40.10;30.10;;;2.10;99.90;;;;;;5072873;28;20462;-69
2023/01/25 01:32:08;;;;;;;40.53;29.80;;;2.00;99.90;;;;;;5067635;28;20679;-69
2023/01/25 01:34:35;;;;;;;42.60;30.23;;;2.00;99.90;;;;;;5071800;28;20462;-69
2023/01/25 01:37:02;;;;;;;40.87;30.87;;;1.90;99.90;;;;;;5074218;28;20569;-69
2023/01/25 01:39:28;;;;;;;39.23;30.20;;;1.90;99.90;;;;;;5074471;28;20482;-69
2023/01/25 01:41:56;;;;;;;40.40;31.63;;;1.90;99.90;;;;;;5070694;28;20487;-69
2023/01/25 01:44:44;;;;;;;46.33;31.87;;;2.00;99.90;;;;;;5074285;28;20474;-69
2023/01/25 01:47:17;;;;;;;42.83;30.73;;;1.90;99.90;;;;;;5065257;28;20470;-69
2023/01/25 01:49:47;;;;;;;42.10;30.80;;;1.90;99.90;;;;;;5066211;28;20944;-69
2023/01/25 01:52:17;;;;;;;40.83;31.20;;;2.10;99.90;;;;;;5063023;28;20491;-69
2023/01/25 01:54:49;;;;;;;41.27;31.43;;;2.00;99.90;;;;;;5076641;28;21107;-69
2023/01/25 01:57:21;;;;;;;35.70;29.13;;;2.00;99.90;;;;;;5069204;28;20473;-69
2023/01/25 01:59:53;;;;;;;38.70;30.43;;;2.00;99.90;;;;;;5070292;28;20458;-69
2023/01/25 02:02:20;;;;;;;43.40;31.30;;;2.00;99.90;;;;;;5067706;28;20490;-69
2023/01/25 02:04:48;;;;;;;38.50;30.63;;;2.00;99.90;;;;;;5072521;28;20462;-69
2023/01/25 02:07:18;;;;;;;37.83;30.30;;;1.90;99.90;;;;;;5066577;28;20502;-69
2023/01/25 02:09:45;;;;;;;40.90;31.10;;;1.90;99.90;;;;;;5072243;28;20498;-69
2023/01/25 02:12:13;;;;;;;41.73;30.07;;;2.00;99.90;;;;;;5064422;28;20469;-70
2023/01/25 02:14:48;;;;;;;39.70;30.07;;;2.10;99.90;;;;;;5069527;28;20469;-69
2023/01/25 02:17:14;;;;;;;44.67;32.63;;;2.00;99.90;;;;;;5071333;28;20458;-69
2023/01/25 02:19:50;;;;;;;45.97;31.57;;;2.00;99.90;;;;;;5076145;28;20854;-69
2023/01/25 02:22:22;;;;;;;34.70;28.87;;;2.10;99.90;;;;;;5069239;28;20492;-69
2023/01/25 02:25:00;;;;;;;45.60;29.87;;;2.10;99.90;;;;;;5068411;28;20525;-69
2023/01/25 02:27:27;;;;;;;38.37;30.73;;;2.10;99.90;;;;;;5071064;28;20467;-69
2023/01/25 02:29:55;;;;;;;42.30;31.43;;;2.10;99.90;;;;;;5072016;28;20466;-69
2023/01/25 02:32:22;;;;;;;49.10;31.27;;;2.00;99.90;;;;;;5071758;28;21083;-69
2023/01/25 02:34:49;;;;;;;37.80;28.43;;;2.20;99.90;;;;;;5070027;28;20454;-69
2023/01/25 02:37:16;;;;;;;40.80;29.77;;;2.20;99.90;;;;;;5069431;28;20474;-70
2023/01/25 02:39:43;;;;;;;38.23;27.93;;;2.20;99.90;;;;;;5075295;28;20478;-69
2023/01/25 02:42:12;;;;;;;40.50;26.57;;;2.10;99.90;;;;;;5068700;28;21263;-68
2023/01/25 02:44:40;;;;;;;37.97;27.77;;;2.20;99.90;;;;;;5073014;28;20465;-68
2023/01/25 02:47:07;;;;;;;42.20;29.70;;;2.20;99.90;;;;;;5063584;28;20474;-68
2023/01/25 02:49:35;;;;;;;40.10;30.80;;;2.20;99.90;;;;;;5075220;28;20455;-68
2023/01/25 02:52:03;;;;;;;38.97;30.13;;;2.30;99.90;;;;;;5069113;28;20489;-68
2023/01/25 02:54:30;;;;;;;38.07;29.90;;;2.10;99.90;;;;;;5069658;28;20485;-68
2023/01/25 02:56:57;;;;;;;41.83;32.07;;;2.10;99.90;;;;;;5073798;28;20458;-68
2023/01/25 02:59:25;;;;;;;45.10;30.30;;;2.20;99.90;;;;;;5070256;28;20454;-68
2023/01/25 03:01:52;;;;;;;36.80;29.23;;;2.20;99.90;;;;;;5059109;28;20508;-69
2023/01/25 03:04:19;;;;;;;45.80;30.13;;;2.10;99.90;;;;;;5068685;28;20516;-68
2023/01/25 03:06:45;;;;;;;40.97;29.70;;;2.00;99.90;;;;;;5072023;28;20549;-68
2023/01/25 03:09:12;;;;;;;42.83;28.30;;;2.00;99.90;;;;;;5068935;28;20467;-68
2023/01/25 03:11:39;;;;;;;43.80;30.43;;;2.10;99.90;;;;;;5067037;28;20817;-69
2023/01/25 03:14:06;;;;;;;37.83;27.87;;;1.90;99.90;;;;;;5073669;28;20454;-68
2023/01/25 03:16:34;;;;;;;41.93;28.40;;;1.80;99.90;;;;;;5074672;28;21011;-68
2023/01/25 03:19:01;;;;;;;43.37;30.10;;;1.90;99.90;;;;;;5071186;28;20461;-68
2023/01/25 03:21:28;;;;;;;40.47;29.00;;;2.00;99.90;;;;;;5065936;28;20462;-68
2023/01/25 03:23:56;;;;;;;40.53;28.90;;;2.00;99.90;;;;;;5072719;28;20490;-68
2023/01/25 03:26:24;;;;;;;42.53;27.00;;;2.00;99.90;;;;;;5065909;28;20524;-69
2023/01/25 03:28:50;;;;;;;36.80;28.30;;;2.00;99.90;;;;;;5077631;28;20474;-68
2023/01/25 03:31:18;;;;;;;41.50;29.50;;;1.90;99.90;;;;;;5066945;28;20819;-68
2023/01/25 03:33:47;;;;;;;40.80;27.23;;;2.00;99.90;;;;;;5073143;28;20460;-68
2023/01/25 03:36:14;;;;;;;48.13;27.93;;;2.00;99.90;;;;;;5069020;28;20506;-68
2023/01/25 03:38:40;;;;;;;42.90;28.13;;;2.00;99.90;;;;;;5073088;28;20471;-68
2023/01/25 03:41:08;;;;;;;43.57;29.67;;;1.90;99.90;;;;;;5070737;28;20474;-69
2023/01/25 03:43:35;;;;;;;41.03;29.60;;;1.70;99.90;;;;;;5063987;28;20536;-68
2023/01/25 03:46:03;;;;;;;41.57;30.00;;;1.80;99.90;;;;;;5065620;28;20467;-68
2023/01/25 03:48:30;;;;;;;40.60;28.73;;;1.90;99.90;;;;;;5069920;28;20462;-68
2023/01/25 03:51:00;;;;;;;40.00;28.83;;;1.90;99.90;;;;;;5069400;28;20460;-69
2023/01/25 03:53:29;;;;;;;49.80;27.97;;;1.80;99.90;;;;;;5063924;28;20458;-68
2023/01/25 03:55:58;;;;;;;41.10;29.73;;;1.80;99.90;;;;;;5067921;28;20961;-68
2023/01/25 03:58:25;;;;;;;47.27;30.40;;;1.90;99.90;;;;;;5069942;28;20462;-69
2023/01/25 04:00:54;;;;;;;40.83;28.80;;;2.00;99.90;;;;;;5069431;28;20462;-70
2023/01/25 04:03:21;;;;;;;45.20;29.10;;;2.00;99.90;;;;;;5066485;28;20493;-68
2023/01/25 04:05:48;;;;;;;40.27;28.53;;;1.90;99.90;;;;;;5068545;28;20659;-68
2023/01/25 04:08:17;;;;;;;43.37;29.00;;;1.90;99.90;;;;;;5069727;28;20553;-68
2023/01/25 04:10:44;;;;;;;39.57;27.60;;;2.00;99.90;;;;;;5064655;28;20463;-68
2023/01/25 04:13:11;;;;;;;37.03;27.83;;;1.90;99.90;;;;;;5066802;28;20471;-69
2023/01/25 04:15:38;;;;;;;42.40;30.00;;;1.90;99.90;;;;;;5067848;28;20941;-68
2023/01/25 04:18:04;;;;;;;40.70;29.97;;;1.80;99.90;;;;;;5070321;28;20470;-69
2023/01/25 04:20:31;;;;;;;45.70;29.97;;;1.70;99.90;;;;;;5068028;28;20458;-68
2023/01/25 04:22:58;;;;;;;43.80;29.87;;;1.70;99.90;;;;;;5069807;28;20485;-69
2023/01/25 04:25:27;;;;;;;46.60;31.20;;;1.90;99.90;;;;;;5071881;28;20469;-68
2023/01/25 04:27:54;;;;;;;41.17;29.33;;;1.90;99.90;;;;;;5073196;28;20458;-68
2023/01/25 04:30:21;;;;;;;42.60;29.67;;;2.10;99.90;;;;;;5063202;28;20466;-68
2023/01/25 04:32:48;;;;;;;50.83;29.00;;;2.10;99.90;;;;;;5066175;28;20478;-68
2023/01/25 04:35:15;;;;;;;41.60;30.20;;;2.20;99.90;;;;;;5066916;28;20984;-68
2023/01/25 04:37:42;;;;;;;46.90;29.80;;;2.10;99.90;;;;;;5072783;28;20469;-69
2023/01/25 04:40:10;;;;;;;38.73;28.83;;;2.10;99.90;;;;;;5068613;28;21012;-69
2023/01/25 04:42:38;;;;;;;46.23;30.77;;;2.10;99.90;;;;;;5072266;28;20542;-69
2023/01/25 04:45:06;;;;;;;47.77;31.97;;;2.10;99.90;;;;;;5065720;28;20977;-69
2023/01/25 04:47:34;;;;;;;45.80;32.27;;;2.30;99.90;;;;;;5067554;28;20462;-68
2023/01/25 04:50:00;;;;;;;47.47;31.23;;;2.30;99.90;;;;;;5066526;28;20961;-69
2023/01/25 04:52:27;;;;;;;46.90;29.70;;;2.40;99.90;;;;;;5080539;28;20512;-69
2023/01/25 04:54:54;;;;;;;44.90;31.73;;;2.40;99.90;;;;;;5066878;28;20532;-69
2023/01/25 04:57:21;;;;;;;45.07;31.50;;;2.40;99.90;;;;;;5068955;28;20462;-69
2023/01/25 04:59:49;;;;;;;43.07;30.37;;;2.50;99.90;;;;;;5067968;28;20817;-68
2023/01/25 05:02:16;;;;;;;44.77;30.40;;;2.40;99.90;;;;;;5061075;28;20588;-69
2023/01/25 05:04:43;;;;;;;48.63;32.23;;;2.40;99.90;;;;;;5071629;28;21099;-69
2023/01/25 05:07:09;;;;;;;43.60;31.00;;;2.20;99.90;;;;;;5067587;28;20462;-68
2023/01/25 05:09:36;;;;;;;45.97;31.80;;;2.10;99.90;;;;;;5072026;28;20465;-69
2023/01/25 05:12:10;;;;;;;43.50;31.10;;;2.20;99.90;;;;;;5072530;28;20485;-69
2023/01/25 05:14:37;;;;;;;42.73;30.80;;;2.20;99.90;;;;;;5066760;28;20462;-69
2023/01/25 05:17:07;;;;;;;45.07;30.57;;;2.30;99.90;;;;;;5068842;28;20566;-69
2023/01/25 05:19:34;;;;;;;47.17;33.10;;;2.30;99.90;;;;;;5071866;28;20471;-69
2023/01/25 05:22:02;;;;;;;47.47;30.50;;;2.40;99.90;;;;;;5075903;28;20470;-69
2023/01/25 05:24:30;;;;;;;42.50;30.00;;;2.40;99.90;;;;;;5074728;28;21027;-69
2023/01/25 05:26:59;;;;;;;43.07;28.30;;;2.30;99.90;;;;;;5072942;28;20465;-69
2023/01/25 05:29:27;;;;;;;37.53;26.97;;;2.30;99.90;;;;;;5077169;28;20952;-69
2023/01/25 05:31:55;;;;;;;41.93;29.20;;;2.30;99.90;;;;;;5068990;28;20459;-70
2023/01/25 05:34:24;;;;;;;37.93;27.03;;;2.20;99.90;;;;;;5067324;28;20483;-69
2023/01/25 05:36:51;;;;;;;38.90;28.60;;;2.00;99.90;;;;;;5072147;28;20463;-68
2023/01/25 05:39:18;;;;;;;37.03;27.33;;;1.90;99.90;;;;;;5063610;28;20482;-69
2023/01/25 05:41:45;;;;;;;40.50;29.10;;;2.00;99.90;;;;;;5072084;28;20836;-69
2023/01/25 05:44:11;;;;;;;42.27;29.70;;;1.90;99.90;;;;;;5070954;28;20501;-69
2023/01/25 05:46:39;;;;;;;38.23;30.10;;;2.00;99.90;;;;;;5081923;28;20468;-69
2023/01/25 05:49:06;;;;;;;37.30;28.23;;;2.20;99.90;;;;;;5078120;28;20938;-69
2023/01/25 05:51:35;;;;;;;42.33;27.97;;;2.20;99.90;;;;;;5066454;28;20493;-68
2023/01/25 05:54:02;;;;;;;33.80;27.83;;;2.30;99.90;;;;;;5067689;28;20461;-68
2023/01/25 05:56:29;;;;;;;38.03;28.00;;;2.30;99.90;;;;;;5074475;28;20878;-69
2023/01/25 05:58:56;;;;;;;42.10;28.90;;;2.30;99.90;;;;;;5080024;28;20455;-69
2023/01/25 06:01:24;;;;;;;45.50;30.90;;;2.10;99.90;;;;;;5070096;28;20956;-69
2023/01/25 06:03:51;;;;;;;40.67;30.90;;;2.00;99.90;;;;;;5070643;28;20494;-69
2023/01/25 06:06:18;;;;;;;44.57;29.73;;;2.10;99.90;;;;;;5061787;28;20462;-69
2023/01/25 06:08:48;;;;;;;40.50;30.17;;;1.90;99.90;;;;;;5073857;28;20467;-69
2023/01/25 06:11:18;;;;;;;45.10;30.30;;;1.90;99.90;;;;;;5067733;28;20463;-68
2023/01/25 06:13:46;;;;;;;43.77;30.70;;;1.80;99.90;;;;;;5071309;28;20917;-68
2023/01/25 06:16:12;;;;;;;44.27;31.63;;;1.70;99.90;;;;;;5070387;28;20967;-68
2023/01/25 06:18:39;;;;;;;40.47;26.80;;;1.70;99.90;;;;;;5071685;28;20460;-68
2023/01/25 06:21:06;;;;;;;49.93;28.90;;;1.70;99.90;;;;;;5074700;28;20473;-69
2023/01/25 06:23:34;;;;;;;43.07;28.23;;;1.80;99.90;;;;;;5074550;28;20475;-69
2023/01/25 06:26:04;;;;;;;40.93;27.20;;;1.90;99.90;;;;;;5069436;28;20467;-68
2023/01/25 06:28:31;;;;;;;40.63;28.37;;;1.80;99.90;;;;;;5072689;28;20462;-69
2023/01/25 06:31:06;;;;;;;34.50;25.03;;;1.80;99.90;;;;;;5069370;28;20466;-69
2023/01/25 06:33:33;;;;;;;35.53;25.30;;;1.60;99.90;;;;;;5060044;28;20462;-69
2023/01/25 06:36:01;;;;;;;43.30;26.80;;;1.60;99.90;;;;;;5074508;28;21264;-69
2023/01/25 06:38:28;;;;;;;41.40;27.57;;;1.70;99.90;;;;;;5074473;28;20500;-68
2023/01/25 06:40:59;;;;;;;40.40;29.40;;;1.70;99.90;;;;;;5064238;28;20487;-68
2023/01/25 06:43:27;;;;;;;46.47;32.20;;;1.70;99.90;;;;;;5069929;28;20482;-68
2023/01/25 06:45:58;;;;;;;48.50;31.13;;;1.80;99.90;;;;;;5073865;28;20462;-69
2023/01/25 06:48:24;;;;;;;53.07;32.13;;;1.80;99.90;;;;;;5065401;28;20546;-69
2023/01/25 06:50:55;;;;;;;48.23;29.07;;;1.80;99.90;;;;;;5074699;28;20501;-69
2023/01/25 06:53:22;;;;;;;49.43;33.67;;;1.90;99.90;;;;;;5077280;28;20462;-69
2023/01/25 06:55:48;;;;;;;40.53;29.30;;;2.00;99.90;;;;;;5067361;28;20976;-69
2023/01/25 06:58:15;;;;;;;43.43;31.57;;;2.00;99.90;;;;;;5073614;28;20454;-69
2023/01/25 07:00:45;;;;;;;45.43;29.17;;;2.10;99.90;;;;;;5063981;28;20463;-69
2023/01/25 07:03:12;;;;;;;47.63;30.67;;;1.90;99.90;;;;;;5062980;28;20961;-69
2023/01/25 07:05:38;;;;;;;52.23;31.37;;;1.70;99.90;;;;;;5066623;28;21784;-69
2023/01/25 07:08:08;;;;;;;43.93;29.30;;;1.60;99.90;;;;;;5069814;28;20463;-69
2023/01/25 07:10:34;;;;;;;46.80;31.20;;;1.60;99.90;;;;;;5066408;28;21125;-69
2023/01/25 07:13:01;;;;;;;38.83;27.10;;;1.50;99.90;;;;;;5065742;28;20965;-68
2023/01/25 07:15:28;;;;;;;40.77;30.37;;;1.40;99.90;;;;;;5063550;28;20499;-68
2023/01/25 07:17:56;;;;;;;38.33;28.00;;;1.50;99.90;;;;;;5065339;28;20973;-68
2023/01/25 07:20:23;;;;;;;38.57;29.30;;;1.50;99.90;;;;;;5064009;28;20493;-69
2023/01/25 07:22:50;;;;;;;41.17;29.90;;;1.50;99.90;;;;;;5071087;28;21151;-69
2023/01/25 07:25:17;;;;;;;43.50;31.27;;;1.60;99.90;;;;;;5065897;28;20875;-68
2023/01/25 07:27:44;;;;;;;42.50;28.57;;;1.50;99.90;;;;;;5064807;28;20482;-68
2023/01/25 07:30:12;;;;;;;39.17;28.10;;;1.60;99.90;;;;;;5074635;28;20881;-68
2023/01/25 07:32:39;;;;;;;47.50;28.57;;;1.60;99.90;;;;;;5064834;28;20470;-69
2023/01/25 07:35:08;;;;;;;36.13;27.00;;;1.80;99.90;;;;;;5060522;28;20463;-69
2023/01/25 07:37:35;;;;;;;46.10;29.63;;;1.80;99.90;;;;;;5067376;28;20953;-69
2023/01/25 07:40:02;;;;;;;42.30;29.00;;;1.70;99.90;;;;;;5062171;28;20483;-68
2023/01/25 07:42:29;;;;;;;45.03;30.40;;;1.70;99.90;;;;;;5071332;28;20462;-69
2023/01/25 07:44:56;;;;;;;40.10;28.30;;;1.70;99.90;;;;;;5063312;28;20492;-69
2023/01/25 07:47:23;;;;;;;41.80;28.97;;;1.70;99.90;;;;;;5071809;28;21084;-69
2023/01/25 07:49:50;;;;;;;38.03;27.17;;;1.70;99.90;;;;;;5070693;28;20451;-70
2023/01/25 07:52:18;;;;;;;46.80;29.30;;;1.70;99.90;;;;;;5064664;28;20487;-68
2023/01/25 07:54:45;;;;;;;41.17;27.60;;;1.70;99.90;;;;;;5066655;28;20493;-69
2023/01/25 07:57:12;;;;;;;42.43;29.17;;;1.60;99.90;;;;;;5068315;28;20573;-68
2023/01/25 07:59:40;;;;;;;45.87;29.20;;;1.60;99.90;;;;;;5066494;28;20482;-69
2023/01/25 08:02:09;;;;;;;40.80;28.90;;;1.70;99.90;;;;;;5058727;28;20495;-69
2023/01/25 08:04:36;;;;;;;41.17;29.67;;;1.70;99.90;;;;;;5071309;28;20486;-68
2023/01/25 08:07:02;;;;;;;44.10;32.23;;;1.80;99.90;;;;;;5067499;28;20508;-68
2023/01/25 08:09:30;;;;;;;44.80;31.23;;;1.70;99.90;;;;;;5068542;28;20455;-68
2023/01/25 08:11:57;;;;;;;46.73;29.90;;;1.90;99.90;;;;;;5062103;28;20470;-69
2023/01/25 08:14:24;;;;;;;46.50;32.60;;;2.00;99.90;;;;;;5065837;28;20961;-69
2023/01/25 08:16:51;;;;;;;43.40;29.67;;;2.00;99.90;;;;;;5059606;28;20989;-68
2023/01/25 08:19:20;;;;;;;41.37;31.50;;;2.00;99.90;;;;;;5068153;28;20901;-69
2023/01/25 08:21:47;;;;;;;54.20;33.50;;;2.10;99.90;;;;;;5067174;28;20520;-68
2023/01/25 08:24:14;;;;;;;48.53;32.97;;;2.00;99.90;;;;;;5065749;28;20485;-68
2023/01/25 08:26:43;;;;;;;51.40;31.43;;;2.00;99.90;;;;;;5061435;28;20465;-69
2023/01/25 08:29:11;;;;;;;53.90;35.17;;;2.00;99.90;;;;;;5062276;28;20816;-69
2023/01/25 08:31:42;;;;;;;50.43;33.17;;;1.80;99.90;;;;;;5065351;28;21353;-68
2023/01/25 08:34:10;;;;;;;43.03;31.40;;;1.90;99.90;;;;;;5072600;28;20461;-69
2023/01/25 08:36:37;;;;;;;53.50;32.77;;;1.90;99.90;;;;;;5067303;28;20565;-71
2023/01/25 08:39:06;;;;;;;49.07;32.80;;;1.90;99.90;;;;;;5077630;28;20481;-68
2023/01/25 08:41:34;;;;;;;51.23;33.57;;;1.60;99.90;;;;;;5066133;28;20540;-68
2023/01/25 08:44:03;;;;;;;45.90;32.70;;;1.60;99.90;;;;;;5071115;28;20462;-69
2023/01/25 08:46:32;;;;;;;55.10;36.57;;;1.70;99.90;;;;;;5071872;28;20478;-68
2023/01/25 08:49:00;;;;;;;57.80;34.20;;;1.70;99.90;;;;;;5070251;28;20471;-69
2023/01/25 08:51:30;;;;;;;52.90;33.50;;;1.60;99.90;;;;;;5065050;28;20487;-69
2023/01/25 08:53:57;;;;;;;54.70;35.97;;;1.70;99.90;;;;;;5062253;28;20463;-69
2023/01/25 08:56:24;;;;;;;48.33;34.20;;;1.70;99.90;;;;;;5072387;28;21859;-69
2023/01/25 08:58:51;;;;;;;49.13;31.63;;;1.70;99.90;;;;;;5079320;28;20461;-69
2023/01/25 09:01:20;;;;;;;55.43;35.07;;;1.70;99.90;;;;;;5073257;28;20581;-68
2023/01/25 09:03:49;;;;;;;48.50;32.10;;;1.70;99.90;;;;;;5071688;28;20834;-68
2023/01/25 09:06:17;;;;;;;49.00;31.47;;;1.70;99.90;;;;;;5066497;28;20572;-69
2023/01/25 09:08:44;;;;;;;49.27;32.70;;;1.60;99.90;;;;;;5065822;28;20462;-68
2023/01/25 09:11:13;;;;;;;54.87;33.80;;;1.70;99.90;;;;;;5068245;28;20462;-69
2023/01/25 09:13:42;;;;;;;54.97;33.83;;;1.90;99.90;;;;;;5078867;28;20972;-69
2023/01/25 09:16:11;;;;;;;54.57;31.67;;;1.80;99.90;;;;;;5076513;28;20550;-69
2023/01/25 09:18:41;;;;;;;51.93;32.70;;;1.90;99.90;;;;;;5070869;28;20462;-69
2023/01/25 09:21:08;;;;;;;48.90;33.20;;;1.90;99.90;;;;;;5065784;28;20961;-69
2023/01/25 09:23:35;;;;;;;52.40;33.53;;;1.70;99.90;;;;;;5077975;28;20872;-68
2023/01/25 09:26:03;;;;;;;51.07;33.27;;;1.80;99.90;;;;;;5070155;28;20486;-70
2023/01/25 09:28:31;;;;;;;48.70;32.00;;;1.90;99.90;;;;;;5067160;28;20455;-69
2023/01/25 09:30:59;;;;;;;56.20;33.57;;;2.00;99.90;;;;;;5066394;28;20463;-69
2023/01/25 09:33:26;;;;;;;53.77;35.40;;;2.00;99.90;;;;;;5067987;28;21011;-68
2023/01/25 09:35:54;;;;;;;55.00;35.83;;;1.90;99.90;;;;;;5068391;28;20467;-69
2023/01/25 09:38:21;;;;;;;63.13;37.00;;;1.90;99.90;;;;;;5073859;28;20946;-68
2023/01/25 09:41:01;;;;;;;59.73;34.70;;;2.00;99.90;;;;;;5069272;28;20486;-68
2023/01/25 09:43:42;;;;;;;52.57;33.63;;;1.80;99.90;;;;;;5067239;28;20470;-68
2023/01/25 09:46:18;;;;;;;63.70;36.10;;;1.80;99.90;;;;;;5075207;28;20493;-69
2023/01/25 09:48:55;;;;;;;64.13;37.27;;;1.70;99.90;;;;;;5064582;28;21001;-69
2023/01/25 09:51:27;;;;;;;57.83;34.13;;;1.70;99.90;;;;;;5070288;28;20486;-69
2023/01/25 09:53:55;;;;;;;52.87;33.93;;;2.00;99.90;;;;;;5071488;28;20490;-68
2023/01/25 09:56:25;;;;;;;56.73;34.60;;;2.00;99.90;;;;;;5065849;28;20481;-69
2023/01/25 09:58:55;;;;;;;69.97;34.73;;;1.70;99.90;;;;;;5069357;28;20463;-68
2023/01/25 10:01:27;;;;;;;59.83;34.73;;;1.80;99.90;;;;;;5075516;28;20523;-68
2023/01/25 10:03:57;;;;;;;60.67;33.50;;;1.90;99.90;;;;;;5076020;28;20960;-69
2023/01/25 10:06:37;;;;;;;53.83;29.97;;;1.90;99.90;;;;;;5070853;28;20494;-68
2023/01/25 10:09:15;;;;;;;63.93;35.30;;;1.80;99.90;;;;;;5064911;28;20469;-69
2023/01/25 10:11:42;;;;;;;67.43;35.13;;;1.50;99.90;;;;;;5064976;28;20455;-68
2023/01/25 10:14:15;;;;;;;55.60;33.23;;;1.50;99.90;;;;;;5073446;28;20468;-69
2023/01/25 10:16:58;;;;;;;58.87;35.80;;;1.50;99.90;;;;;;5067842;28;20451;-68
2023/01/25 10:19:35;;;;;;;64.90;33.50;;;1.40;99.90;;;;;;5064946;28;20464;-69
2023/01/25 10:22:10;;;;;;;62.80;36.43;;;1.20;99.90;;;;;;5066950;28;20466;-69
2023/01/25 10:25:10;;;;;;;52.00;34.47;;;1.20;99.90;;;;;;5077933;28;20486;-68
2023/01/25 10:27:44;;;;;;;64.70;36.87;;;1.20;99.90;;;;;;5074953;28;20467;-69
2023/01/25 10:30:23;;;;;;;64.30;34.83;;;1.50;99.90;;;;;;5066545;28;20497;-69
2023/01/25 10:32:52;;;;;;;74.63;35.63;;;1.50;99.90;;;;;;5069660;28;20463;-68
2023/01/25 10:35:22;;;;;;;55.90;33.57;;;1.50;99.90;;;;;;5068995;28;20463;-68
2023/01/25 10:37:51;;;;;;;68.60;36.97;;;1.60;99.90;;;;;;5069965;28;20478;-69
2023/01/25 10:40:23;;;;;;;54.47;34.23;;;1.50;99.90;;;;;;5075412;28;20565;-68
2023/01/25 10:42:54;;;;;;;70.40;37.37;;;1.50;99.90;;;;;;5072372;28;20491;-69
2023/01/25 10:45:21;;;;;;;66.70;36.33;;;1.40;99.90;;;;;;5066876;28;20491;-69
2023/01/25 10:47:52;;;;;;;64.60;34.50;;;1.30;99.90;;;;;;5068265;28;20463;-68
2023/01/25 10:50:45;;;;;;;59.03;34.03;;;1.10;99.90;;;;;;5070418;28;20727;-69
2023/01/25 10:53:23;;;;;;;58.53;32.50;;;1.30;99.90;;;;;;5056195;28;20532;-69
2023/01/25 10:55:59;;;;;;;68.97;32.23;;;1.40;99.90;;;;;;5068882;28;20516;-68
2023/01/25 10:58:32;;;;;;;61.50;33.90;;;1.40;99.90;;;;;;5070945;28;20557;-69
2023/01/25 11:00:59;;;;;;;60.13;35.30;;;1.30;99.90;;;;;;5068926;28;20467;-68
2023/01/25 11:03:35;;;;;;;59.00;32.07;;;1.20;99.90;;;;;;5067958;28;20455;-69
2023/01/25 11:06:02;;;;;;;67.67;36.50;;;1.30;99.90;;;;;;5068465;28;20490;-68
2023/01/25 11:08:35;;;;;;;70.10;36.07;;;1.30;99.90;;;;;;5062824;28;20553;-68
2023/01/25 11:11:22;;;;;;;61.50;33.73;;;1.30;99.90;;;;;;5062185;28;20470;-69
2023/01/25 11:13:48;;;;;;;67.93;36.07;;;1.60;99.90;;;;;;5069590;28;20455;-69
2023/01/25 11:16:25;;;;;;;72.47;35.13;;;1.60;99.90;;;;;;5065892;28;20868;-69
2023/01/25 11:18:54;;;;;;;62.67;35.60;;;1.60;99.90;;;;;;5063557;28;20450;-69
2023/01/25 11:21:25;;;;;;;65.93;36.10;;;1.60;99.90;;;;;;5066056;28;20485;-69
2023/01/25 11:24:15;;;;;;;77.63;38.40;;;1.50;99.90;;;;;;5065348;28;20957;-69
2023/01/25 11:26:41;;;;;;;64.13;36.80;;;1.60;99.90;;;;;;5069982;28;20564;-68
2023/01/25 11:29:13;;;;;;;67.07;36.30;;;1.60;99.90;;;;;;5067086;28;20467;-68
2023/01/25 11:31:44;;;;;;;65.37;35.53;;;1.70;99.90;;;;;;5064338;28;20481;-69
2023/01/25 11:34:12;;;;;;;63.20;33.70;;;1.70;99.90;;;;;;5065651;28;20970;-68
2023/01/25 11:36:55;;;;;;;72.53;37.30;;;1.90;99.90;;;;;;5060193;28;20973;-69
2023/01/25 11:39:42;;;;;;;63.63;34.00;;;2.00;99.90;;;;;;5071490;28;20578;-68
2023/01/25 11:42:25;;;;;;;67.20;33.27;;;1.90;99.90;;;;;;5069711;28;20814;-68
2023/01/25 11:45:34;;;;;;;75.83;37.30;;;2.00;99.90;;;;;;5073105;28;20646;-70
2023/01/25 11:48:17;;;;;;;76.23;37.20;;;1.90;99.90;;;;;;5069733;28;20489;-68
2023/01/25 11:50:50;;;;;;;69.40;37.50;;;1.90;99.90;;;;;;5064226;28;20463;-68
2023/01/25 11:53:36;;;;;;;73.93;35.90;;;1.70;99.90;;;;;;5069139;28;20477;-68
2023/01/25 11:56:15;;;;;;;63.20;32.70;;;1.50;99.90;;;;;;5069125;28;20523;-69
2023/01/25 11:59:02;;;;;;;61.53;33.80;;;1.50;99.90;;;;;;5068543;28;20455;-68
2023/01/25 12:01:37;;;;;;;67.30;34.60;;;1.50;99.90;;;;;;5056515;28;20475;-69
2023/01/25 12:04:38;;;;;;;60.57;35.07;;;1.70;99.90;;;;;;5068078;28;20855;-70
2023/01/25 12:07:10;;;;;;;66.43;33.03;;;1.70;99.90;;;;;;5034260;28;20495;-69
2023/01/25 12:10:04;;;;;;;74.73;33.90;;;1.70;99.90;;;;;;5062619;28;20470;-68
2023/01/25 12:12:44;;;;;;;68.10;33.73;;;1.50;99.90;;;;;;5059475;28;20467;-68
2023/01/25 12:15:32;;;;;;;66.57;34.20;;;1.40;99.90;;;;;;5059644;28;20593;-69
2023/01/25 12:18:23;;;;;;;57.43;30.37;;;1.40;99.90;;;;;;5066281;28;20506;-69
2023/01/25 12:21:13;;;;;;;71.00;35.90;;;1.50;99.90;;;;;;5065054;28;20466;-70
2023/01/25 12:23:56;;;;;;;56.97;32.80;;;1.60;99.90;;;;;;5063402;28;20504;-68
2023/01/25 12:26:28;;;;;;;64.63;34.83;;;1.60;99.90;;;;;;5063711;28;20581;-69
2023/01/25 12:29:04;;;;;;;57.47;32.77;;;1.70;99.90;;;;;;5064250;28;20467;-69
2023/01/25 12:31:40;;;;;;;66.60;34.00;;;1.70;99.90;;;;;;5060780;28;20581;-68
2023/01/25 12:34:14;;;;;;;65.60;33.93;;;1.60;99.90;;;;;;5064514;28;20459;-69
2023/01/25 12:36:45;;;;;;;60.50;31.73;;;1.40;99.90;;;;;;5063605;28;20470;-69
2023/01/25 12:39:16;;;;;;;51.00;29.37;;;1.70;99.90;;;;;;5066382;28;20548;-68
2023/01/25 12:41:46;;;;;;;59.60;31.97;;;1.70;99.90;;;;;;5063199;28;20521;-69
2023/01/25 12:44:21;;;;;;;54.60;30.63;;;1.70;99.90;;;;;;5067134;28;20466;-68
2023/01/25 12:46:55;;;;;;;56.67;28.17;;;1.50;99.90;;;;;;5069975;28;20517;-69
2023/01/25 12:49:30;;;;;;;59.33;32.27;;;1.50;99.90;;;;;;5065543;28;20945;-69